Time;durP1;ratioP1;P1;durP2;ratioP2;P2;SDS_P1;SDS_P2;PMS_P1;PMS_P2;Temp;Humidity;BMP_temperature;BMP_pressure;BME280_temperature;BME280_humidity;BME280_pressure;Samples;Min_cycle;Max_cycle;Signal;HPM_P1;HPM_P2
2021/10/04 00:01:56;;;;;;;0.10;0.10;;;;;;;;;;4978803;28;20143;-90
2021/10/04 00:04:22;;;;;;;0.10;0.10;;;;;;;;;;4994717;28;20034;-90
2021/10/04 00:06:49;;;;;;;0.10;0.10;;;;;;;;;;4978648;28;20043;-90
2021/10/04 00:09:15;;;;;;;0.20;0.20;;;;;;;;;;5010829;28;20086;-90
2021/10/04 00:11:40;;;;;;;0.10;0.10;;;;;;;;;;4994590;28;20057;-89
2021/10/04 00:14:07;;;;;;;0.10;0.10;;;;;;;;;;4994577;28;20486;-90
2021/10/04 00:16:33;;;;;;;0.20;0.20;;;;;;;;;;4994409;28;20042;-90
2021/10/04 00:18:58;;;;;;;0.10;0.10;;;;;;;;;;4978124;28;20064;-91
2021/10/04 00:21:24;;;;;;;0.10;0.10;;;;;;;;;;4978012;28;20057;-90
2021/10/04 00:23:50;;;;;;;0.10;0.10;;;;;;;;;;4994464;28;20104;-90
2021/10/04 00:26:16;;;;;;;0.10;0.10;;;;;;;;;;4994274;28;20457;-89
2021/10/04 00:28:42;;;;;;;0.20;0.20;;;;;;;;;;4994345;28;20140;-90
2021/10/04 00:31:08;;;;;;;0.20;0.20;;;;;;;;;;5013282;28;20037;-90
2021/10/04 00:33:34;;;;;;;0.10;0.10;;;;;;;;;;4981771;28;20081;-89
2021/10/04 00:36:00;;;;;;;0.10;0.10;;;;;;;;;;4997924;28;20041;-89
2021/10/04 00:38:26;;;;;;;0.10;0.10;;;;;;;;;;5014193;28;20041;-89
2021/10/04 00:40:52;;;;;;;0.10;0.10;;;;;;;;;;4997878;28;20069;-89
2021/10/04 00:43:20;;;;;;;0.20;0.20;;;;;;;;;;4981616;28;20038;-89
2021/10/04 00:45:46;;;;;;;0.10;0.10;;;;;;;;;;4981325;28;20501;-89
2021/10/04 00:48:12;;;;;;;0.10;0.10;;;;;;;;;;5014233;28;20045;-89
2021/10/04 00:50:38;;;;;;;0.10;0.10;;;;;;;;;;4997876;28;20038;-89
2021/10/04 00:53:04;;;;;;;0.10;0.10;;;;;;;;;;4981363;28;20208;-88
2021/10/04 00:55:30;;;;;;;0.10;0.10;;;;;;;;;;4997336;28;20067;-88
2021/10/04 00:57:56;;;;;;;0.10;0.10;;;;;;;;;;4997534;28;20046;-89
2021/10/04 01:00:23;;;;;;;0.10;0.10;;;;;;;;;;4997529;28;20124;-88
2021/10/04 01:02:49;;;;;;;0.10;0.10;;;;;;;;;;4981281;28;20044;-88
2021/10/04 01:05:15;;;;;;;0.13;0.13;;;;;;;;;;4997306;28;20410;-89
2021/10/04 01:07:41;;;;;;;0.10;0.10;;;;;;;;;;4997433;28;20041;-89
2021/10/04 01:10:11;;;;;;;0.10;0.10;;;;;;;;;;4997579;28;20064;-89
2021/10/04 01:12:48;;;;;;;0.10;0.10;;;;;;;;;;4997352;28;20116;-89
2021/10/04 01:15:15;;;;;;;0.10;0.10;;;;;;;;;;4981164;28;20038;-89
2021/10/04 01:17:41;;;;;;;0.10;0.10;;;;;;;;;;4981157;28;20038;-89
2021/10/04 01:20:15;;;;;;;0.47;0.47;;;;;;;;;;4997000;28;20132;-89
2021/10/04 01:22:41;;;;;;;0.38;0.13;;;;;;;;;;4981006;28;20493;-89
2021/10/04 01:25:07;;;;;;;0.10;0.10;;;;;;;;;;4996776;28;20041;-89
2021/10/04 01:27:33;;;;;;;0.10;0.10;;;;;;;;;;4980712;28;20049;-88
2021/10/04 01:29:59;;;;;;;0.10;0.10;;;;;;;;;;4996723;28;20060;-89
2021/10/04 01:32:25;;;;;;;0.10;0.10;;;;;;;;;;4997068;28;20030;-88
2021/10/04 01:34:53;;;;;;;0.10;0.10;;;;;;;;;;4997000;28;20069;-90
2021/10/04 01:37:20;;;;;;;0.10;0.10;;;;;;;;;;4996853;28;20045;-89
2021/10/04 01:39:46;;;;;;;0.10;0.10;;;;;;;;;;5013538;28;20060;-89
2021/10/04 01:42:12;;;;;;;0.10;0.10;;;;;;;;;;4996520;28;20138;-89
2021/10/04 01:44:37;;;;;;;0.10;0.10;;;;;;;;;;4996690;28;20074;-89
2021/10/04 01:47:04;;;;;;;0.10;0.10;;;;;;;;;;4980496;28;20041;-89
2021/10/04 01:49:30;;;;;;;0.10;0.10;;;;;;;;;;4996618;28;20115;-89
2021/10/04 01:51:55;;;;;;;0.20;0.20;;;;;;;;;;4996422;28;20516;-89
2021/10/04 01:54:21;;;;;;;0.10;0.10;;;;;;;;;;4980042;28;20069;-88
2021/10/04 01:56:47;;;;;;;0.10;0.10;;;;;;;;;;4980111;28;20069;-88
2021/10/04 01:59:13;;;;;;;0.10;0.10;;;;;;;;;;4996883;28;20038;-89
2021/10/04 02:01:40;;;;;;;0.10;0.10;;;;;;;;;;4996250;28;20061;-89
2021/10/04 02:04:06;;;;;;;0.10;0.10;;;;;;;;;;4996080;28;20085;-89
2021/10/04 02:06:32;;;;;;;0.10;0.10;;;;;;;;;;4995942;28;20046;-89
2021/10/04 02:08:59;;;;;;;0.10;0.10;;;;;;;;;;5012389;28;20194;-89
2021/10/04 02:11:25;;;;;;;0.10;0.10;;;;;;;;;;4979899;28;20366;-90
2021/10/04 02:13:51;;;;;;;0.10;0.10;;;;;;;;;;4995995;28;20033;-89
2021/10/04 02:16:17;;;;;;;0.10;0.10;;;;;;;;;;4979782;28;20040;-89
2021/10/04 02:18:44;;;;;;;0.10;0.10;;;;;;;;;;4996090;28;20042;-89
2021/10/04 02:21:10;;;;;;;0.10;0.10;;;;;;;;;;4995545;28;20058;-89
2021/10/04 02:23:36;;;;;;;0.10;0.10;;;;;;;;;;4995954;28;20058;-88
2021/10/04 02:26:02;;;;;;;0.10;0.10;;;;;;;;;;4995918;28;20052;-94
2021/10/04 02:28:28;;;;;;;0.10;0.10;;;;;;;;;;4980124;28;20045;-88
2021/10/04 02:30:54;;;;;;;0.10;0.10;;;;;;;;;;5011810;28;20176;-88
2021/10/04 02:33:20;;;;;;;0.10;0.10;;;;;;;;;;4979264;28;20041;-88
2021/10/04 02:35:46;;;;;;;0.10;0.10;;;;;;;;;;4979526;28;20041;-88
2021/10/04 02:38:12;;;;;;;0.10;0.10;;;;;;;;;;4979133;28;20073;-89
2021/10/04 02:40:38;;;;;;;0.10;0.10;;;;;;;;;;4979345;28;20100;-89
2021/10/04 02:43:04;;;;;;;0.10;0.10;;;;;;;;;;4979371;28;20400;-90
2021/10/04 02:45:30;;;;;;;0.22;0.22;;;;;;;;;;4995506;28;20044;-90
2021/10/04 02:47:56;;;;;;;0.10;0.10;;;;;;;;;;4995319;28;20489;-90
2021/10/04 02:50:23;;;;;;;0.20;0.20;;;;;;;;;;4995396;28;20042;-89
2021/10/04 02:52:49;;;;;;;0.10;0.10;;;;;;;;;;5011289;28;20041;-89
2021/10/04 02:55:15;;;;;;;0.10;0.10;;;;;;;;;;4978891;28;20488;-90
2021/10/04 02:57:41;;;;;;;0.10;0.10;;;;;;;;;;5011939;28;20073;-89
2021/10/04 03:00:07;;;;;;;0.10;0.10;;;;;;;;;;4978920;28;20084;-90
2021/10/04 03:02:33;;;;;;;0.10;0.10;;;;;;;;;;4995790;28;20465;-89
2021/10/04 03:04:59;;;;;;;0.13;0.13;;;;;;;;;;4995220;28;20042;-90
2021/10/04 03:07:25;;;;;;;0.10;0.10;;;;;;;;;;4995036;28;20107;-90
2021/10/04 03:09:52;;;;;;;0.10;0.10;;;;;;;;;;4994977;28;20281;-89
2021/10/04 03:12:18;;;;;;;0.15;0.15;;;;;;;;;;4979089;28;20037;-89
2021/10/04 03:14:44;;;;;;;0.10;0.10;;;;;;;;;;5010907;28;20045;-89
2021/10/04 03:17:10;;;;;;;0.20;0.20;;;;;;;;;;4978831;28;20038;-90
2021/10/04 03:19:36;;;;;;;0.10;0.10;;;;;;;;;;4995034;28;20080;-91
2021/10/04 03:22:02;;;;;;;0.10;0.10;;;;;;;;;;4994851;28;20050;-89
2021/10/04 03:24:28;;;;;;;0.10;0.10;;;;;;;;;;4994670;28;20048;-90
2021/10/04 03:26:54;;;;;;;0.20;0.20;;;;;;;;;;4978297;28;20134;-89
2021/10/04 03:29:20;;;;;;;0.57;0.55;;;;;;;;;;4994946;28;20045;-90
2021/10/04 03:31:46;;;;;;;0.10;0.10;;;;;;;;;;5011233;28;20112;-90
2021/10/04 03:34:11;;;;;;;0.10;0.10;;;;;;;;;;4978816;28;20049;-91
2021/10/04 03:36:37;;;;;;;0.10;0.10;;;;;;;;;;4995102;28;20081;-90
2021/10/04 03:39:04;;;;;;;0.20;0.20;;;;;;;;;;5011365;28;20061;-90
2021/10/04 03:41:30;;;;;;;0.20;0.20;;;;;;;;;;4979039;28;20042;-91
2021/10/04 03:43:56;;;;;;;0.10;0.10;;;;;;;;;;4995400;28;20056;-91
2021/10/04 03:46:22;;;;;;;0.10;0.10;;;;;;;;;;4995423;28;20517;-91
2021/10/04 03:48:47;;;;;;;0.10;0.10;;;;;;;;;;4978936;28;20473;-90
2021/10/04 03:51:13;;;;;;;0.10;0.10;;;;;;;;;;4995080;28;20102;-90
2021/10/04 03:53:39;;;;;;;0.10;0.10;;;;;;;;;;4995381;28;20069;-90
2021/10/04 03:56:05;;;;;;;0.10;0.10;;;;;;;;;;4994879;28;20042;-91
2021/10/04 03:58:31;;;;;;;0.20;0.20;;;;;;;;;;4995187;28;20521;-91
2021/10/04 04:00:57;;;;;;;0.10;0.10;;;;;;;;;;4995239;28;20112;-90
2021/10/04 04:03:23;;;;;;;0.10;0.10;;;;;;;;;;4994880;28;20129;-89
2021/10/04 04:05:49;;;;;;;0.10;0.10;;;;;;;;;;4982117;28;20413;-90
2021/10/04 04:08:15;;;;;;;0.10;0.10;;;;;;;;;;4998372;28;20387;-90
2021/10/04 04:10:41;;;;;;;0.10;0.10;;;;;;;;;;5015041;28;20434;-90
2021/10/04 04:13:07;;;;;;;0.10;0.10;;;;;;;;;;4982441;28;20409;-89
2021/10/04 04:15:33;;;;;;;0.10;0.10;;;;;;;;;;4998572;28;20042;-91
2021/10/04 04:17:59;;;;;;;0.10;0.10;;;;;;;;;;4998793;28;20042;-89
2021/10/04 04:20:25;;;;;;;0.10;0.10;;;;;;;;;;4982131;28;20054;-91
2021/10/04 04:22:51;;;;;;;0.10;0.10;;;;;;;;;;4998866;28;20049;-91
2021/10/04 04:25:17;;;;;;;0.10;0.10;;;;;;;;;;4998719;28;20033;-90
2021/10/04 04:27:43;;;;;;;0.10;0.10;;;;;;;;;;4998459;28;20091;-90
2021/10/04 04:30:09;;;;;;;0.20;0.20;;;;;;;;;;4997869;28;20042;-88
2021/10/04 04:32:35;;;;;;;0.10;0.10;;;;;;;;;;4997601;28;20049;-88
2021/10/04 04:35:05;;;;;;;0.10;0.10;;;;;;;;;;4997661;28;20042;-88
2021/10/04 04:37:32;;;;;;;0.10;0.10;;;;;;;;;;4981484;28;20478;-89
2021/10/04 04:39:57;;;;;;;0.10;0.10;;;;;;;;;;4997576;28;20045;-88
2021/10/04 04:42:25;;;;;;;0.10;0.10;;;;;;;;;;4997699;28;20038;-89
2021/10/04 04:44:51;;;;;;;0.10;0.10;;;;;;;;;;4981633;28;20397;-88
2021/10/04 04:47:17;;;;;;;0.20;0.20;;;;;;;;;;4997520;28;20125;-89
2021/10/04 04:49:43;;;;;;;0.70;0.20;;;;;;;;;;4997303;28;20046;-88
2021/10/04 04:52:09;;;;;;;0.38;0.38;;;;;;;;;;4997326;28;20038;-88
2021/10/04 04:54:35;;;;;;;0.10;0.10;;;;;;;;;;4997474;28;20113;-88
2021/10/04 04:57:01;;;;;;;0.10;0.10;;;;;;;;;;5013497;28;20042;-88
2021/10/04 04:59:27;;;;;;;0.10;0.10;;;;;;;;;;4981254;28;20041;-88
2021/10/04 05:01:54;;;;;;;0.10;0.10;;;;;;;;;;4997361;28;20061;-88
2021/10/04 05:04:21;;;;;;;0.10;0.10;;;;;;;;;;5013346;28;20120;-88
2021/10/04 05:06:47;;;;;;;0.10;0.10;;;;;;;;;;4997024;28;20159;-88
2021/10/04 05:09:12;;;;;;;0.10;0.10;;;;;;;;;;4996987;28;20117;-87
2021/10/04 05:11:38;;;;;;;0.30;0.30;;;;;;;;;;4997305;28;20042;-87
2021/10/04 05:14:04;;;;;;;0.10;0.10;;;;;;;;;;4996918;28;20042;-88
2021/10/04 05:16:30;;;;;;;0.10;0.10;;;;;;;;;;5012388;28;20038;-88
2021/10/04 05:18:56;;;;;;;0.10;0.10;;;;;;;;;;5013215;28;20052;-88
2021/10/04 05:21:22;;;;;;;0.10;0.10;;;;;;;;;;4996754;28;20060;-88
2021/10/04 05:23:48;;;;;;;0.10;0.10;;;;;;;;;;4996817;28;20041;-88
2021/10/04 05:26:14;;;;;;;0.10;0.10;;;;;;;;;;4996711;28;20042;-88
2021/10/04 05:28:40;;;;;;;0.10;0.10;;;;;;;;;;5013000;28;20457;-88
2021/10/04 05:31:06;;;;;;;0.10;0.10;;;;;;;;;;4996806;28;20034;-88
2021/10/04 05:33:32;;;;;;;0.10;0.10;;;;;;;;;;4996899;28;20037;-87
2021/10/04 05:35:58;;;;;;;0.10;0.10;;;;;;;;;;4996660;28;20074;-88
2021/10/04 05:38:24;;;;;;;0.10;0.10;;;;;;;;;;4980584;28;20085;-88
2021/10/04 05:40:50;;;;;;;0.10;0.10;;;;;;;;;;4980359;28;20056;-88
2021/10/04 05:43:16;;;;;;;0.10;0.10;;;;;;;;;;4980316;28;20053;-88
2021/10/04 05:45:42;;;;;;;0.10;0.10;;;;;;;;;;4980441;28;20046;-88
2021/10/04 05:48:08;;;;;;;0.10;0.10;;;;;;;;;;4980017;28;20124;-89
2021/10/04 05:50:34;;;;;;;0.10;0.10;;;;;;;;;;4980440;28;20045;-89
2021/10/04 05:53:00;;;;;;;0.38;0.13;;;;;;;;;;4980671;28;20033;-88
2021/10/04 05:55:26;;;;;;;0.20;0.20;;;;;;;;;;4996637;28;20053;-90
2021/10/04 05:57:52;;;;;;;0.10;0.10;;;;;;;;;;4980620;28;20121;-90
2021/10/04 06:00:18;;;;;;;0.10;0.10;;;;;;;;;;4996895;28;20048;-90
2021/10/04 06:02:44;;;;;;;0.10;0.10;;;;;;;;;;4996888;28;20044;-90
2021/10/04 06:05:10;;;;;;;0.10;0.10;;;;;;;;;;4996498;28;20049;-89
2021/10/04 06:07:36;;;;;;;0.55;0.22;;;;;;;;;;4996290;28;20569;-90
2021/10/04 06:10:02;;;;;;;0.10;0.10;;;;;;;;;;4996125;28;20493;-89
2021/10/04 06:12:28;;;;;;;0.10;0.10;;;;;;;;;;4980029;28;20042;-89
2021/10/04 06:14:54;;;;;;;0.10;0.10;;;;;;;;;;4995929;28;20081;-88
2021/10/04 06:17:21;;;;;;;0.10;0.10;;;;;;;;;;4995875;28;20042;-88
2021/10/04 06:19:47;;;;;;;0.10;0.10;;;;;;;;;;4995809;28;20122;-86
2021/10/04 06:22:13;;;;;;;0.17;0.17;;;;;;;;;;4979798;28;20048;-89
2021/10/04 06:24:39;;;;;;;0.10;0.10;;;;;;;;;;4996132;28;20050;-91
2021/10/04 06:27:05;;;;;;;0.10;0.10;;;;;;;;;;4978982;28;20115;-91
2021/10/04 06:29:31;;;;;;;0.10;0.10;;;;;;;;;;4995210;28;20482;-91
2021/10/04 06:31:57;;;;;;;0.10;0.10;;;;;;;;;;4995719;28;20052;-91
2021/10/04 06:34:22;;;;;;;0.10;0.10;;;;;;;;;;4995956;28;20355;-91
2021/10/04 06:36:48;;;;;;;0.10;0.10;;;;;;;;;;4995745;28;20125;-91
2021/10/04 06:39:14;;;;;;;7.88;1.75;;;;;;;;;;4979124;28;20044;-91
2021/10/04 06:41:41;;;;;;;0.10;0.10;;;;;;;;;;4979048;28;20045;-88
2021/10/04 06:44:08;;;;;;;0.10;0.10;;;;;;;;;;5011606;28;20094;-88
2021/10/04 06:46:34;;;;;;;0.10;0.10;;;;;;;;;;4994936;28;20120;-88
2021/10/04 06:49:00;;;;;;;0.20;0.20;;;;;;;;;;4978778;28;20124;-89
2021/10/04 06:51:26;;;;;;;0.10;0.10;;;;;;;;;;4995335;28;20088;-89
2021/10/04 06:53:52;;;;;;;0.10;0.10;;;;;;;;;;4995252;28;20042;-90
2021/10/04 06:56:18;;;;;;;0.10;0.10;;;;;;;;;;4995164;28;20044;-90
2021/10/04 06:58:44;;;;;;;0.10;0.10;;;;;;;;;;4995109;28;20041;-89
2021/10/04 07:01:10;;;;;;;0.10;0.10;;;;;;;;;;4995102;28;20046;-89
2021/10/04 07:03:36;;;;;;;0.10;0.10;;;;;;;;;;4979376;28;20049;-90
2021/10/04 07:06:02;;;;;;;0.10;0.10;;;;;;;;;;4995433;28;20052;-87
2021/10/04 07:08:28;;;;;;;0.10;0.10;;;;;;;;;;5011176;28;20045;-89
2021/10/04 07:10:55;;;;;;;0.10;0.10;;;;;;;;;;4978563;28;20517;-89
2021/10/04 07:13:21;;;;;;;0.10;0.10;;;;;;;;;;4994563;28;20121;-89
2021/10/04 07:15:47;;;;;;;0.10;0.10;;;;;;;;;;4994868;28;20500;-90
2021/10/04 07:18:13;;;;;;;0.10;0.10;;;;;;;;;;4994972;28;20092;-90
2021/10/04 07:20:39;;;;;;;0.10;0.10;;;;;;;;;;4994424;28;20516;-92
2021/10/04 07:23:05;;;;;;;0.10;0.10;;;;;;;;;;4994622;28;20442;-90
2021/10/04 07:25:31;;;;;;;0.10;0.10;;;;;;;;;;5011164;28;20037;-90
2021/10/04 07:27:57;;;;;;;0.10;0.10;;;;;;;;;;5010889;28;20124;-89
2021/10/04 07:30:23;;;;;;;0.10;0.10;;;;;;;;;;4978365;28;20061;-88
2021/10/04 07:32:49;;;;;;;0.10;0.10;;;;;;;;;;4994436;28;20046;-88
2021/10/04 07:35:15;;;;;;;0.22;0.22;;;;;;;;;;5010932;28;20038;-89
2021/10/04 07:37:41;;;;;;;0.10;0.10;;;;;;;;;;4978645;28;20130;-89
2021/10/04 07:40:08;;;;;;;0.10;0.10;;;;;;;;;;4992614;28;20049;-89
2021/10/04 07:42:33;;;;;;;0.10;0.10;;;;;;;;;;4993080;28;20077;-89
2021/10/04 07:44:59;;;;;;;0.10;0.10;;;;;;;;;;4975159;28;20088;-89
2021/10/04 07:47:26;;;;;;;0.10;0.10;;;;;;;;;;4959274;28;20042;-90
2021/10/04 07:49:52;;;;;;;0.10;0.10;;;;;;;;;;4958766;28;20065;-90
2021/10/04 07:52:18;;;;;;;0.10;0.10;;;;;;;;;;4958759;28;20445;-89
2021/10/04 07:54:44;;;;;;;0.10;0.10;;;;;;;;;;4958878;28;20038;-89
2021/10/04 07:57:13;;;;;;;0.10;0.10;;;;;;;;;;4991080;28;20129;-90
2021/10/04 07:59:39;;;;;;;0.20;0.20;;;;;;;;;;4975248;28;20054;-89
2021/10/04 08:02:05;;;;;;;0.10;0.10;;;;;;;;;;4975420;28;20057;-90
2021/10/04 08:04:31;;;;;;;0.10;0.10;;;;;;;;;;4975180;28;20045;-90
2021/10/04 08:06:57;;;;;;;0.10;0.10;;;;;;;;;;4959249;28;20053;-90
2021/10/04 08:09:23;;;;;;;0.10;0.10;;;;;;;;;;4974993;28;20070;-88
2021/10/04 08:11:49;;;;;;;0.10;0.10;;;;;;;;;;4975279;28;20038;-88
2021/10/04 08:14:15;;;;;;;0.10;0.10;;;;;;;;;;4963867;28;20125;-88
2021/10/04 08:16:41;;;;;;;0.10;0.10;;;;;;;;;;4985765;28;20023;-88
2021/10/04 08:19:07;;;;;;;0.10;0.10;;;;;;;;;;4967887;28;20061;-90
2021/10/04 08:21:33;;;;;;;0.10;0.10;;;;;;;;;;4990775;28;20089;-91
2021/10/04 08:23:59;;;;;;;0.10;0.10;;;;;;;;;;4982906;28;20065;-90
2021/10/04 08:26:26;;;;;;;0.10;0.10;;;;;;;;;;4966648;28;20058;-90
2021/10/04 08:28:52;;;;;;;0.10;0.10;;;;;;;;;;4959116;28;20198;-90
2021/10/04 08:31:18;;;;;;;0.10;0.10;;;;;;;;;;4959056;28;20039;-90
2021/10/04 08:33:44;;;;;;;0.10;0.10;;;;;;;;;;4943241;28;20105;-91
2021/10/04 08:36:11;;;;;;;0.10;0.10;;;;;;;;;;4942978;28;20045;-90
2021/10/04 08:38:37;;;;;;;0.10;0.10;;;;;;;;;;4943213;28;20038;-91
2021/10/04 08:41:03;;;;;;;0.10;0.10;;;;;;;;;;4943149;28;20038;-92
2021/10/04 08:43:30;;;;;;;0.10;0.10;;;;;;;;;;4942578;28;20585;-90
2021/10/04 08:45:58;;;;;;;0.10;0.10;;;;;;;;;;4958486;28;20453;-87
2021/10/04 08:48:25;;;;;;;0.10;0.10;;;;;;;;;;4942469;28;20129;-88
2021/10/04 08:50:51;;;;;;;0.10;0.10;;;;;;;;;;4943003;28;20479;-89
2021/10/04 08:53:17;;;;;;;0.10;0.10;;;;;;;;;;4961810;28;20064;-89
2021/10/04 08:55:43;;;;;;;0.10;0.10;;;;;;;;;;4961969;28;20404;-90
2021/10/04 08:58:09;;;;;;;0.20;0.20;;;;;;;;;;4961845;28;20038;-90
2021/10/04 09:00:35;;;;;;;0.10;0.10;;;;;;;;;;4962217;28;20442;-89
2021/10/04 09:03:01;;;;;;;0.10;0.10;;;;;;;;;;4961855;28;20070;-90
2021/10/04 09:05:27;;;;;;;0.10;0.10;;;;;;;;;;4962024;28;20038;-90
2021/10/04 09:08:01;;;;;;;0.10;0.10;;;;;;;;;;4946128;28;20613;-89
2021/10/04 09:10:28;;;;;;;0.10;0.10;;;;;;;;;;4940973;28;20074;-88
2021/10/04 09:12:54;;;;;;;0.10;0.10;;;;;;;;;;4942496;28;20553;-90
2021/10/04 09:15:39;;;;;;;0.10;0.10;;;;;;;;;;4942483;28;20038;-92
2021/10/04 09:18:05;;;;;;;0.10;0.10;;;;;;;;;;4958511;28;20150;-91
2021/10/04 09:20:50;;;;;;;0.10;0.10;;;;;;;;;;4966293;28;20510;-91
2021/10/04 09:23:27;;;;;;;0.10;0.10;;;;;;;;;;4977590;28;20145;-91
2021/10/04 09:25:53;;;;;;;0.10;0.10;;;;;;;;;;4961506;28;20089;-90
2021/10/04 09:28:28;;;;;;;0.10;0.10;;;;;;;;;;4961387;28;20470;-91
2021/10/04 09:31:10;;;;;;;0.10;0.10;;;;;;;;;;4977374;28;20049;-93
2021/10/04 09:33:54;;;;;;;0.20;0.20;;;;;;;;;;4961731;28;20058;-91
2021/10/04 09:36:20;;;;;;;0.10;0.10;;;;;;;;;;4961001;28;20540;-91
2021/10/04 09:38:46;;;;;;;0.10;0.10;;;;;;;;;;4961449;28;20042;-90
2021/10/04 09:41:12;;;;;;;0.10;0.10;;;;;;;;;;4961105;28;20497;-90
2021/10/04 09:43:38;;;;;;;0.10;0.10;;;;;;;;;;4961500;28;20472;-89
2021/10/04 09:46:05;;;;;;;0.10;0.10;;;;;;;;;;4961916;28;20047;-89
2021/10/04 09:48:31;;;;;;;0.10;0.10;;;;;;;;;;4961564;28;20050;-89
2021/10/04 09:50:57;;;;;;;0.10;0.10;;;;;;;;;;4961109;28;20089;-89
2021/10/04 09:53:23;;;;;;;0.10;0.10;;;;;;;;;;4961028;28;20104;-89
2021/10/04 09:55:49;;;;;;;0.10;0.10;;;;;;;;;;4960593;28;20109;-88
2021/10/04 09:58:15;;;;;;;0.32;0.32;;;;;;;;;;4960902;28;20050;-87
2021/10/04 10:00:51;;;;;;;0.10;0.10;;;;;;;;;;4960523;28;20038;-89
2021/10/04 10:03:18;;;;;;;0.10;0.10;;;;;;;;;;4976966;28;20046;-92
2021/10/04 10:05:50;;;;;;;0.10;0.10;;;;;;;;;;4977025;28;20402;-90
2021/10/04 10:08:16;;;;;;;0.10;0.10;;;;;;;;;;4977054;28;20124;-91
2021/10/04 10:10:43;;;;;;;0.10;0.10;;;;;;;;;;4961487;28;20117;-91
2021/10/04 10:13:10;;;;;;;0.20;0.20;;;;;;;;;;4960980;28;20048;-89
2021/10/04 10:15:37;;;;;;;0.10;0.10;;;;;;;;;;4944745;28;20050;-89
2021/10/04 10:18:17;;;;;;;0.10;0.10;;;;;;;;;;4960419;28;20177;-88
2021/10/04 10:20:43;;;;;;;0.10;0.10;;;;;;;;;;4966850;28;20047;-89
2021/10/04 10:23:09;;;;;;;0.10;0.10;;;;;;;;;;4941221;28;20048;-89
2021/10/04 10:25:40;;;;;;;0.10;0.10;;;;;;;;;;4941132;28;20048;-88
2021/10/04 10:28:07;;;;;;;0.13;0.13;;;;;;;;;;4941269;28;20057;-88
2021/10/04 10:30:33;;;;;;;0.10;0.10;;;;;;;;;;4940829;28;20042;-89
2021/10/04 10:32:59;;;;;;;0.10;0.10;;;;;;;;;;4941082;28;20118;-89
2021/10/04 10:35:44;;;;;;;0.10;0.10;;;;;;;;;;4940484;28;20046;-89
2021/10/04 10:38:10;;;;;;;0.10;0.10;;;;;;;;;;4956776;28;20133;-90
2021/10/04 10:40:36;;;;;;;0.10;0.10;;;;;;;;;;4956701;28;20129;-89
2021/10/04 10:43:03;;;;;;;0.10;0.10;;;;;;;;;;4941380;28;20050;-91
2021/10/04 10:45:37;;;;;;;0.10;0.10;;;;;;;;;;4940793;28;20046;-90
2021/10/04 10:48:03;;;;;;;0.10;0.10;;;;;;;;;;4940802;28;20035;-90
2021/10/04 10:50:33;;;;;;;0.10;0.10;;;;;;;;;;4956792;28;20039;-91
2021/10/04 10:52:59;;;;;;;0.10;0.10;;;;;;;;;;4941105;28;20039;-90
2021/10/04 10:55:25;;;;;;;0.10;0.10;;;;;;;;;;4972954;28;20042;-90
2021/10/04 10:57:51;;;;;;;0.10;0.10;;;;;;;;;;4940963;28;20045;-90
2021/10/04 11:00:18;;;;;;;0.10;0.10;;;;;;;;;;4972805;28;20046;-90
2021/10/04 11:03:01;;;;;;;0.10;0.10;;;;;;;;;;4941060;28;20043;-91
2021/10/04 11:05:38;;;;;;;0.10;0.10;;;;;;;;;;4972376;28;20096;-90
2021/10/04 11:08:20;;;;;;;0.10;0.10;;;;;;;;;;4972346;28;20470;-89
2021/10/04 11:10:49;;;;;;;0.22;0.22;;;;;;;;;;4940720;28;20494;-91
2021/10/04 11:13:22;;;;;;;0.10;0.10;;;;;;;;;;4940102;28;20043;-92
2021/10/04 11:15:48;;;;;;;0.10;0.10;;;;;;;;;;4940556;28;20042;-90
2021/10/04 11:18:15;;;;;;;0.10;0.10;;;;;;;;;;4940681;28;20454;-92
2021/10/04 11:20:41;;;;;;;0.10;0.10;;;;;;;;;;4946685;28;20059;-89
2021/10/04 11:23:07;;;;;;;0.10;0.10;;;;;;;;;;4956427;28;20054;-90
2021/10/04 11:25:40;;;;;;;0.20;0.20;;;;;;;;;;4955939;28;20046;-89
2021/10/04 11:28:07;;;;;;;0.10;0.10;;;;;;;;;;4955836;28;20099;-89
2021/10/04 11:30:50;;;;;;;0.10;0.10;;;;;;;;;;4940220;28;20510;-93
2021/10/04 11:33:16;;;;;;;0.10;0.10;;;;;;;;;;4956286;28;20082;-91
2021/10/04 11:36:03;;;;;;;0.10;0.10;;;;;;;;;;4956862;28;20089;-93
2021/10/04 11:38:30;;;;;;;0.10;0.10;;;;;;;;;;4956803;28;20379;-94
2021/10/04 11:40:57;;;;;;;0.10;0.10;;;;;;;;;;4941100;28;20387;-92
2021/10/04 11:43:24;;;;;;;0.25;0.25;;;;;;;;;;4956699;28;20113;-95
2021/10/04 11:45:50;;;;;;;0.10;0.10;;;;;;;;;;4956859;28;20447;-92
2021/10/04 11:48:29;;;;;;;0.20;0.20;;;;;;;;;;4956908;28;20482;-92
2021/10/04 11:50:55;;;;;;;0.10;0.10;;;;;;;;;;4956786;28;20039;-92
2021/10/04 11:53:21;;;;;;;0.10;0.10;;;;;;;;;;4956808;28;20043;-91
2021/10/04 11:55:57;;;;;;;0.10;0.10;;;;;;;;;;4956643;28;20127;-94
2021/10/04 11:58:24;;;;;;;0.10;0.10;;;;;;;;;;4941042;28;20067;-93
2021/10/04 12:00:50;;;;;;;0.10;0.10;;;;;;;;;;4956314;28;20475;-95
2021/10/04 12:03:26;;;;;;;0.10;0.10;;;;;;;;;;4956464;28;20043;-93
2021/10/04 12:05:53;;;;;;;0.10;0.10;;;;;;;;;;4956319;28;20093;-91
2021/10/04 12:08:19;;;;;;;0.10;0.10;;;;;;;;;;4956413;28;20388;-92
2021/10/04 12:10:56;;;;;;;0.10;0.10;;;;;;;;;;4956818;28;20050;-92
2021/10/04 12:13:26;;;;;;;0.10;0.10;;;;;;;;;;4956396;28;20151;-93
2021/10/04 12:15:53;;;;;;;0.10;0.10;;;;;;;;;;4957939;28;20104;-94
2021/10/04 12:18:20;;;;;;;0.10;0.10;;;;;;;;;;4944269;28;20046;-95
2021/10/04 12:20:46;;;;;;;0.10;0.10;;;;;;;;;;4957171;28;20073;-94
2021/10/04 12:23:13;;;;;;;0.10;0.10;;;;;;;;;;4959605;28;20047;-95
2021/10/04 12:25:39;;;;;;;0.10;0.10;;;;;;;;;;4958160;28;20482;-93
2021/10/04 12:28:06;;;;;;;0.10;0.10;;;;;;;;;;4944599;28;20046;-95
2021/10/04 12:30:44;;;;;;;0.10;0.10;;;;;;;;;;4960166;28;20451;-96
2021/10/04 12:33:10;;;;;;;0.10;0.10;;;;;;;;;;4960719;28;20129;-93
2021/10/04 12:35:36;;;;;;;0.10;0.10;;;;;;;;;;4961359;28;20047;-92
2021/10/04 12:38:03;;;;;;;0.10;0.10;;;;;;;;;;4961465;28;20049;-95
2021/10/04 12:40:31;;;;;;;0.10;0.10;;;;;;;;;;4960382;28;20146;-96
2021/10/04 12:43:00;;;;;;;0.10;0.10;;;;;;;;;;4960623;28;20395;-95
2021/10/04 12:45:26;;;;;;;0.15;0.15;;;;;;;;;;4961053;28;20046;-94
2021/10/04 12:47:53;;;;;;;0.10;0.10;;;;;;;;;;4964279;28;20411;-95
2021/10/04 12:50:27;;;;;;;0.10;0.10;;;;;;;;;;4963762;28;20049;-94
2021/10/04 12:52:54;;;;;;;0.10;0.10;;;;;;;;;;4967239;28;20474;-94
2021/10/04 12:55:20;;;;;;;0.10;0.10;;;;;;;;;;4960513;28;20047;-94
2021/10/04 12:57:46;;;;;;;0.10;0.10;;;;;;;;;;4959411;28;20133;-90
2021/10/04 13:00:12;;;;;;;0.10;0.10;;;;;;;;;;4959105;28;20042;-91
2021/10/04 13:02:38;;;;;;;0.10;0.10;;;;;;;;;;4958802;28;20054;-92
2021/10/04 13:05:06;;;;;;;0.10;0.10;;;;;;;;;;4958567;28;20042;-90
2021/10/04 13:07:33;;;;;;;0.10;0.10;;;;;;;;;;4959084;28;20051;-91
2021/10/04 13:09:59;;;;;;;0.10;0.10;;;;;;;;;;4958980;28;20419;-91
2021/10/04 13:12:25;;;;;;;0.10;0.10;;;;;;;;;;4958820;28;20038;-94
2021/10/04 13:14:51;;;;;;;0.10;0.10;;;;;;;;;;4959720;28;20105;-93
2021/10/04 13:17:18;;;;;;;0.10;0.10;;;;;;;;;;4959595;28;20395;-94
2021/10/04 13:19:48;;;;;;;0.65;0.30;;;;;;;;;;4944759;28;20459;-92
2021/10/04 13:22:18;;;;;;;0.10;0.10;;;;;;;;;;4962727;28;20521;-95
2021/10/04 13:24:46;;;;;;;0.10;0.10;;;;;;;;;;4962794;28;20085;-93
2021/10/04 13:27:12;;;;;;;0.10;0.10;;;;;;;;;;4962098;28;20042;-92
2021/10/04 13:29:39;;;;;;;0.10;0.10;;;;;;;;;;4961781;28;20038;-92
2021/10/04 13:32:05;;;;;;;0.10;0.10;;;;;;;;;;4962023;28;20038;-93
2021/10/04 13:34:31;;;;;;;0.10;0.10;;;;;;;;;;4961725;28;20117;-92
2021/10/04 13:36:57;;;;;;;0.10;0.10;;;;;;;;;;4961243;28;20132;-89
2021/10/04 13:39:23;;;;;;;0.13;0.13;;;;;;;;;;4961146;28;20446;-89
2021/10/04 13:41:49;;;;;;;0.10;0.10;;;;;;;;;;4961277;28;20069;-92
2021/10/04 13:44:15;;;;;;;0.10;0.10;;;;;;;;;;4961308;28;20462;-91
2021/10/04 13:46:41;;;;;;;0.10;0.10;;;;;;;;;;4945400;28;20042;-91
2021/10/04 13:49:07;;;;;;;0.10;0.10;;;;;;;;;;4961003;28;20502;-89
2021/10/04 13:51:33;;;;;;;0.10;0.10;;;;;;;;;;4960966;28;20072;-91
2021/10/04 13:53:59;;;;;;;0.10;0.10;;;;;;;;;;4961053;28;20066;-91
2021/10/04 13:56:25;;;;;;;0.10;0.10;;;;;;;;;;4960813;28;20049;-90
2021/10/04 13:58:51;;;;;;;0.10;0.10;;;;;;;;;;4960714;28;20490;-90
2021/10/04 14:01:17;;;;;;;0.10;0.10;;;;;;;;;;4960569;28;20502;-90
2021/10/04 14:03:43;;;;;;;0.10;0.10;;;;;;;;;;4961307;28;20465;-90
2021/10/04 14:06:09;;;;;;;0.10;0.10;;;;;;;;;;4960378;28;20134;-91
2021/10/04 14:08:35;;;;;;;0.10;0.10;;;;;;;;;;4960193;28;20069;-90
2021/10/04 14:11:01;;;;;;;0.10;0.10;;;;;;;;;;4974645;28;20530;-90
2021/10/04 14:13:27;;;;;;;0.10;0.10;;;;;;;;;;4975888;28;20038;-91
2021/10/04 14:15:53;;;;;;;0.10;0.10;;;;;;;;;;4960369;28;20486;-91
2021/10/04 14:18:19;;;;;;;0.10;0.10;;;;;;;;;;4960547;28;20046;-91
2021/10/04 14:20:45;;;;;;;0.10;0.10;;;;;;;;;;4967197;28;20065;-90
2021/10/04 14:23:11;;;;;;;0.10;0.10;;;;;;;;;;4976543;28;20038;-91
2021/10/04 14:25:37;;;;;;;0.10;0.10;;;;;;;;;;4976436;28;20442;-90
2021/10/04 14:28:06;;;;;;;0.10;0.10;;;;;;;;;;4976430;28;20462;-91
2021/10/04 14:30:32;;;;;;;0.10;0.10;;;;;;;;;;4976381;28;20042;-90
2021/10/04 14:32:58;;;;;;;0.10;0.10;;;;;;;;;;4976177;28;20049;-87
2021/10/04 14:35:24;;;;;;;0.10;0.10;;;;;;;;;;4975899;28;20044;-87
2021/10/04 14:37:51;;;;;;;0.10;0.10;;;;;;;;;;4992353;28;20038;-90
2021/10/04 14:40:17;;;;;;;0.10;0.10;;;;;;;;;;4958698;28;20051;-88
2021/10/04 14:42:45;;;;;;;0.10;0.10;;;;;;;;;;4987974;28;20050;-88